createdAt,value
2022-08-07T00:00:26.114Z,80.00
2022-08-07T00:02:53.827Z,80.30
2022-08-07T00:05:23.686Z,79.70
2022-08-07T00:08:00.102Z,80.10
2022-08-07T00:10:31.557Z,80.20
2022-08-07T00:13:09.881Z,80.10
2022-08-07T00:15:51.199Z,80.90
2022-08-07T00:18:28.751Z,80.20
2022-08-07T00:21:03.322Z,80.50
2022-08-07T00:23:39.489Z,80.50
2022-08-07T00:26:18.460Z,81.00
2022-08-07T00:28:58.939Z,80.90
2022-08-07T00:31:26.426Z,79.90
2022-08-07T00:34:08.733Z,80.30
2022-08-07T00:36:38.637Z,80.20
2022-08-07T00:39:12.860Z,80.30
2022-08-07T00:42:02.096Z,80.80
2022-08-07T00:44:34.158Z,80.60
2022-08-07T00:47:03.863Z,80.10
2022-08-07T00:50:19.825Z,80.90
2022-08-07T00:52:20.827Z,80.50
2022-08-07T00:54:53.668Z,81.60
2022-08-07T00:57:25.855Z,80.40
2022-08-07T00:59:54.439Z,79.90
2022-08-07T01:02:29.015Z,80.80
2022-08-07T01:04:58.781Z,81.40
2022-08-07T01:07:29.344Z,80.90
2022-08-07T01:10:05.910Z,81.00
2022-08-07T01:12:53.997Z,80.90
2022-08-07T01:15:35.678Z,80.80
2022-08-07T01:18:11.471Z,80.90
2022-08-07T01:20:57.397Z,81.10
2022-08-07T01:23:38.743Z,81.00
2022-08-07T01:26:11.841Z,81.00
2022-08-07T01:28:45.884Z,81.30
2022-08-07T01:31:15.470Z,81.40
2022-08-07T01:33:55.452Z,81.10
2022-08-07T01:36:33.467Z,81.00
2022-08-07T01:39:01.920Z,80.80
2022-08-07T01:41:55.071Z,80.60
2022-08-07T01:44:27.328Z,81.90
2022-08-07T01:46:54.904Z,81.00
2022-08-07T01:49:22.357Z,81.90
2022-08-07T01:52:02.570Z,81.90
2022-08-07T01:54:37.496Z,82.10
2022-08-07T01:57:24.158Z,82.70
2022-08-07T02:00:02.021Z,82.00
2022-08-07T02:03:19.178Z,82.10
2022-08-07T02:05:55.324Z,82.70
2022-08-07T02:08:30.073Z,82.60
2022-08-07T02:10:59.573Z,82.70
2022-08-07T02:13:56.499Z,81.70
2022-08-07T02:16:19.927Z,82.30
2022-08-07T02:18:56.595Z,82.60
2022-08-07T02:21:26.475Z,82.30
2022-08-07T02:24:17.754Z,83.00
2022-08-07T02:26:46.572Z,83.20
2022-08-07T02:29:14.524Z,82.50
2022-08-07T02:31:41.800Z,82.60
2022-08-07T02:34:11.200Z,82.90
2022-08-07T02:36:45.996Z,83.00
2022-08-07T02:39:16.451Z,82.50
2022-08-07T02:41:50.723Z,82.80
2022-08-07T02:44:27.688Z,82.80
2022-08-07T02:47:04.236Z,82.50
2022-08-07T02:49:56.278Z,82.40
2022-08-07T02:53:06.157Z,82.80
2022-08-07T02:56:02.175Z,82.80
2022-08-07T02:58:28.594Z,83.60
2022-08-07T03:01:03.583Z,83.10
2022-08-07T03:03:49.503Z,83.00
2022-08-07T03:06:25.900Z,83.00
2022-08-07T03:09:02.043Z,83.50
2022-08-07T03:11:32.823Z,83.60
2022-08-07T03:14:03.617Z,83.60
2022-08-07T03:16:31.799Z,84.00
2022-08-07T03:19:00.295Z,84.10
2022-08-07T03:21:28.594Z,84.00
2022-08-07T03:24:17.989Z,83.70
2022-08-07T03:26:58.151Z,84.30
2022-08-07T03:29:32.004Z,85.10
2022-08-07T03:32:07.126Z,85.70
2022-08-07T03:34:47.303Z,86.00
2022-08-07T03:37:32.547Z,85.90
2022-08-07T03:40:15.072Z,87.30
2022-08-07T03:42:44.313Z,87.90
2022-08-07T03:45:12.797Z,89.40
2022-08-07T03:47:59.396Z,89.40
2022-08-07T03:50:28.694Z,89.50
2022-08-07T03:52:59.528Z,90.00
2022-08-07T03:55:52.876Z,90.40
2022-08-07T03:59:07.358Z,90.70
2022-08-07T04:01:11.701Z,91.00
2022-08-07T04:03:53.508Z,90.40
2022-08-07T04:06:36.401Z,90.80
2022-08-07T04:09:06.462Z,90.90
2022-08-07T04:12:26.703Z,90.70
2022-08-07T04:14:37.834Z,90.90
2022-08-07T04:17:19.855Z,91.50
2022-08-07T04:19:52.465Z,91.30
2022-08-07T04:22:29.355Z,91.90
2022-08-07T04:25:01.056Z,92.20
2022-08-07T04:27:39.258Z,92.20
2022-08-07T04:30:21.329Z,92.70
2022-08-07T04:33:00.047Z,92.70
2022-08-07T04:35:27.544Z,93.00
2022-08-07T04:38:13.101Z,93.30
2022-08-07T04:40:52.014Z,94.00
2022-08-07T04:44:11.933Z,94.20
2022-08-07T04:46:59.206Z,94.30
2022-08-07T04:49:42.251Z,94.60
2022-08-07T04:52:20.251Z,94.40
2022-08-07T04:58:13.248Z,94.60
2022-08-07T04:59:18.581Z,95.00
2022-08-07T05:02:06.327Z,95.20
2022-08-07T05:05:01.127Z,94.50
2022-08-07T05:07:48.140Z,95.50
2022-08-07T05:10:37.916Z,95.40
2022-08-07T05:14:53.040Z,95.90
2022-08-07T05:16:09.460Z,96.40
2022-08-07T05:18:47.315Z,96.70
2022-08-07T05:22:00.198Z,97.10
2022-08-07T05:24:11.650Z,96.40
2022-08-07T05:26:40.307Z,95.80
2022-08-07T05:29:15.988Z,96.90
2022-08-07T05:31:51.288Z,97.10
2022-08-07T05:34:21.666Z,96.90
2022-08-07T05:36:54.928Z,96.80
2022-08-07T05:40:06.529Z,96.40
2022-08-07T05:42:12.484Z,96.20
2022-08-07T05:44:46.456Z,96.30
2022-08-07T05:47:20.892Z,96.00
2022-08-07T05:50:06.644Z,96.20
2022-08-07T05:52:33.847Z,96.00
2022-08-07T05:55:08.420Z,96.20
2022-08-07T05:57:42.256Z,96.10
2022-08-07T06:00:16.267Z,95.20
2022-08-07T06:02:49.898Z,96.40
2022-08-07T06:05:19.754Z,96.40
2022-08-07T06:08:13.124Z,95.70
2022-08-07T06:10:52.064Z,95.50
2022-08-07T06:14:12.292Z,95.90
2022-08-07T06:16:10.341Z,94.70
2022-08-07T06:18:41.081Z,95.20
2022-08-07T06:22:15.115Z,94.80
2022-08-07T06:24:52.887Z,93.90
2022-08-07T06:26:46.648Z,93.60
2022-08-07T06:29:14.367Z,92.90
2022-08-07T06:31:49.827Z,93.00
2022-08-07T06:34:20.497Z,92.80
2022-08-07T06:36:48.268Z,93.10
2022-08-07T06:40:16.204Z,92.70
2022-08-07T06:42:17.845Z,92.60
2022-08-07T06:44:51.237Z,92.50
2022-08-07T06:47:19.723Z,92.80
2022-08-07T06:49:51.453Z,92.40
2022-08-07T06:52:35.569Z,92.70
2022-08-07T06:55:33.950Z,92.40
2022-08-07T06:58:10.655Z,92.60
2022-08-07T07:00:42.269Z,92.60
2022-08-07T07:03:13.715Z,92.20
2022-08-07T07:06:02.840Z,92.10
2022-08-07T07:08:31.023Z,92.00
2022-08-07T07:11:01.625Z,92.10
2022-08-07T07:13:57.790Z,91.70
2022-08-07T07:16:44.980Z,92.10
2022-08-07T07:19:55.776Z,91.60
2022-08-07T07:22:36.953Z,91.70
2022-08-07T07:26:31.453Z,91.50
2022-08-07T07:28:42.473Z,91.50
2022-08-07T07:31:08.538Z,92.10
2022-08-07T07:33:38.675Z,92.30
2022-08-07T07:36:12.766Z,93.00
2022-08-07T07:38:45.887Z,91.80
2022-08-07T07:41:20.312Z,91.60
2022-08-07T07:44:17.042Z,92.60
2022-08-07T07:46:55.295Z,92.20
2022-08-07T07:50:33.223Z,92.10
2022-08-07T07:52:19.054Z,91.30
2022-08-07T07:54:51.265Z,91.70
2022-08-07T07:57:50.368Z,92.10
2022-08-07T08:00:11.497Z,92.40
2022-08-07T08:03:04.828Z,94.20
2022-08-07T08:05:50.920Z,93.30
2022-08-07T08:08:34.237Z,94.70
2022-08-07T08:11:16.226Z,94.80
2022-08-07T08:13:53.931Z,94.10
2022-08-07T08:16:38.739Z,92.90
2022-08-07T08:20:16.198Z,94.00
2022-08-07T08:22:20.419Z,94.40
2022-08-07T08:25:43.053Z,94.40
2022-08-07T08:28:37.813Z,94.30
2022-08-07T08:31:16.442Z,93.40
2022-08-07T08:33:55.695Z,93.10
2022-08-07T08:36:30.412Z,93.40
2022-08-07T08:39:09.174Z,92.10
2022-08-07T08:42:01.422Z,91.90
2022-08-07T08:44:44.665Z,91.80
2022-08-07T08:48:32.595Z,91.30
2022-08-07T08:52:00.883Z,91.50
2022-08-07T08:54:25.727Z,92.50
2022-08-07T08:56:54.987Z,93.00
2022-08-07T08:59:48.058Z,91.30
2022-08-07T09:03:00.846Z,91.70
2022-08-07T09:06:18.440Z,91.20
2022-08-07T09:09:29.790Z,91.60
2022-08-07T09:12:30.365Z,90.20
2022-08-07T09:16:22.203Z,88.10
2022-08-07T09:18:41.502Z,89.40
2022-08-07T09:24:29.106Z,87.90
2022-08-07T09:25:20.337Z,87.30
2022-08-07T09:30:00.560Z,85.60
2022-08-07T09:31:04.595Z,82.00
2022-08-07T09:33:57.919Z,82.50
2022-08-07T09:36:37.472Z,83.30
2022-08-07T09:39:55.454Z,80.50
2022-08-07T09:42:59.087Z,79.60
2022-08-07T09:47:27.738Z,78.90
2022-08-07T09:50:01.949Z,78.70
2022-08-07T09:52:39.589Z,75.20
2022-08-07T09:56:04.587Z,73.30
2022-08-07T09:58:48.563Z,72.80
2022-08-07T10:01:51.391Z,76.70
2022-08-07T10:05:12.102Z,75.90
2022-08-07T10:08:16.081Z,75.10
2022-08-07T10:11:59.391Z,72.10
2022-08-07T10:14:30.328Z,72.10
2022-08-07T10:17:16.525Z,70.60
2022-08-07T10:20:07.567Z,70.80
2022-08-07T10:23:07.558Z,71.40
2022-08-07T10:25:53.108Z,72.30
2022-08-07T10:29:11.608Z,69.10
2022-08-07T10:31:54.027Z,68.20
2022-08-07T10:34:54.964Z,69.80
2022-08-07T10:38:00.094Z,69.70
2022-08-07T10:40:48.745Z,69.10
2022-08-07T10:43:44.476Z,68.90
2022-08-07T10:46:30.802Z,66.70
2022-08-07T10:49:49.702Z,66.30
2022-08-07T10:52:50.843Z,65.10
2022-08-07T10:55:37.238Z,67.40
2022-08-07T10:58:33.398Z,65.20
2022-08-07T11:01:35.688Z,66.40
2022-08-07T11:04:58.119Z,64.00
2022-08-07T11:07:58.630Z,64.50
2022-08-07T11:10:55.495Z,61.60
2022-08-07T11:14:45.196Z,64.70
2022-08-07T11:17:13.013Z,59.70
2022-08-07T11:20:04.036Z,62.00
2022-08-07T11:22:46.277Z,63.90
2022-08-07T11:25:36.148Z,61.90
2022-08-07T11:28:16.617Z,62.90
2022-08-07T11:31:08.728Z,60.40
2022-08-07T11:34:00.405Z,60.00
2022-08-07T11:37:11.645Z,55.30
2022-08-07T11:40:35.873Z,51.80
2022-08-07T11:43:54.199Z,54.30
2022-08-07T11:46:55.558Z,53.40
2022-08-07T11:50:31.734Z,51.60
2022-08-07T11:53:27.144Z,50.80
2022-08-07T11:56:26.904Z,48.60
2022-08-07T12:00:12.183Z,47.20
2022-08-07T12:02:34.003Z,47.60
2022-08-07T12:05:41.475Z,45.80
2022-08-07T12:08:35.244Z,46.00
2022-08-07T12:11:32.189Z,47.30
2022-08-07T12:14:24.706Z,50.60
2022-08-07T12:16:55.364Z,50.40
2022-08-07T12:19:56.485Z,50.60
2022-08-07T12:22:58.874Z,49.90
2022-08-07T12:26:03.215Z,48.90
2022-08-07T12:29:01.850Z,46.20
2022-08-07T12:32:03.824Z,47.30
2022-08-07T12:34:37.243Z,47.30
2022-08-07T12:37:08.474Z,48.90
2022-08-07T12:39:50.380Z,43.60
2022-08-07T12:42:27.788Z,47.50
2022-08-07T12:44:59.411Z,46.80
2022-08-07T12:47:49.239Z,44.30
2022-08-07T12:50:56.724Z,46.00
2022-08-07T12:54:02.908Z,44.90
2022-08-07T12:56:39.643Z,47.10
2022-08-07T12:59:08.717Z,46.50
2022-08-07T13:02:40.361Z,46.00
2022-08-07T13:06:04.686Z,44.10
2022-08-07T13:08:59.578Z,45.90
2022-08-07T13:12:15.128Z,48.70
2022-08-07T13:15:23.286Z,46.40
2022-08-07T13:18:34.600Z,46.40
2022-08-07T13:21:15.074Z,46.80
2022-08-07T13:24:25.828Z,46.80
2022-08-07T13:27:20.790Z,44.90
2022-08-07T13:30:19.661Z,44.00
2022-08-07T13:34:31.849Z,46.60
2022-08-07T13:36:06.462Z,45.10
2022-08-07T13:39:12.910Z,45.60
2022-08-07T13:41:56.923Z,46.30
2022-08-07T13:44:34.521Z,47.80
2022-08-07T13:47:09.308Z,46.60
2022-08-07T13:50:34.310Z,47.50
2022-08-07T13:52:38.178Z,47.70
2022-08-07T13:55:19.694Z,45.20
2022-08-07T13:58:27.933Z,44.80
2022-08-07T14:01:09.206Z,46.10
2022-08-07T14:04:07.586Z,44.10
2022-08-07T14:06:40.445Z,45.90
2022-08-07T14:10:00.876Z,45.80
2022-08-07T14:13:19.015Z,45.40
2022-08-07T14:16:15.346Z,44.20
2022-08-07T14:18:57.062Z,44.70
2022-08-07T14:22:04.316Z,45.00
2022-08-07T14:24:33.243Z,45.30
2022-08-07T14:28:09.605Z,44.60
2022-08-07T14:30:12.678Z,46.30
2022-08-07T14:32:50.690Z,47.20
2022-08-07T14:35:44.938Z,47.40
2022-08-07T14:38:26.482Z,47.40
2022-08-07T14:41:12.107Z,48.40
2022-08-07T14:43:57.075Z,47.50
2022-08-07T14:46:31.970Z,46.00
2022-08-07T14:49:17.509Z,46.90
2022-08-07T14:52:04.612Z,47.60
2022-08-07T14:54:42.161Z,47.20
2022-08-07T14:57:14.908Z,47.00
2022-08-07T15:00:05.466Z,47.60
2022-08-07T15:02:39.373Z,47.20
2022-08-07T15:05:19.988Z,47.10
2022-08-07T15:07:52.054Z,47.90
2022-08-07T15:13:22.541Z,49.10
2022-08-07T15:15:58.284Z,49.10
2022-08-07T15:18:36.304Z,48.60
2022-08-07T15:21:58.820Z,49.70
2022-08-07T15:25:15.379Z,48.50
2022-08-07T15:27:09.137Z,49.50
2022-08-07T15:30:06.816Z,50.00
2022-08-07T15:32:39.413Z,51.40
2022-08-07T15:35:17.202Z,49.60
2022-08-07T15:38:17.500Z,48.50
2022-08-07T15:41:00.482Z,48.90
2022-08-07T15:43:56.030Z,48.80
2022-08-07T15:46:31.659Z,48.70
2022-08-07T15:54:39.462Z,49.60
2022-08-07T15:57:27.812Z,49.40
2022-08-07T16:00:04.364Z,48.50
2022-08-07T16:02:45.741Z,48.50
2022-08-07T16:05:19.376Z,48.50
2022-08-07T16:08:33.333Z,48.90
2022-08-07T16:10:47.363Z,49.20
2022-08-07T16:13:59.838Z,49.70
2022-08-07T16:17:02.242Z,49.50
2022-08-07T16:20:12.262Z,49.70
2022-08-07T16:23:54.516Z,51.20
2022-08-07T16:26:30.397Z,49.80
2022-08-07T16:30:11.240Z,49.60
2022-08-07T16:32:33.237Z,49.80
2022-08-07T16:35:51.779Z,49.10
2022-08-07T16:38:59.972Z,49.60
2022-08-07T16:41:54.166Z,49.50
2022-08-07T16:45:03.816Z,49.50
2022-08-07T16:48:06.856Z,51.10
2022-08-07T16:51:22.692Z,50.30
2022-08-07T16:54:34.502Z,49.30
2022-08-07T16:58:00.902Z,50.00
2022-08-07T17:00:17.426Z,51.30
2022-08-07T17:03:21.767Z,50.20
2022-08-07T17:06:31.124Z,49.90
2022-08-07T17:10:06.975Z,49.90
2022-08-07T17:13:41.824Z,48.90
2022-08-07T17:16:34.114Z,48.90
2022-08-07T17:20:01.146Z,48.30
2022-08-07T17:22:36.481Z,50.60
2022-08-07T17:25:15.178Z,47.60
2022-08-07T17:28:19.466Z,51.00
2022-08-07T17:30:59.441Z,47.90
2022-08-07T17:34:09.695Z,48.20
2022-08-07T17:36:29.051Z,47.70
2022-08-07T17:39:10.126Z,49.70
2022-08-07T17:42:01.695Z,48.10
2022-08-07T17:44:45.461Z,50.60
2022-08-07T17:47:38.267Z,51.50
2022-08-07T17:50:52.616Z,51.20
2022-08-07T17:54:01.222Z,52.80
2022-08-07T17:56:30.566Z,53.70
2022-08-07T17:59:00.377Z,56.00
2022-08-07T18:01:58.423Z,56.70
2022-08-07T18:05:01.387Z,57.30
2022-08-07T18:08:16.395Z,56.60
2022-08-07T18:12:17.690Z,58.10
2022-08-07T18:14:33.955Z,59.00
2022-08-07T18:18:46.657Z,59.80
2022-08-07T18:21:09.695Z,61.50
2022-08-07T18:24:33.090Z,60.40
2022-08-07T18:27:20.810Z,63.70
2022-08-07T18:30:32.412Z,63.20
2022-08-07T18:33:34.916Z,66.20
2022-08-07T18:36:37.127Z,67.60
2022-08-07T18:40:07.973Z,67.40
2022-08-07T18:42:27.882Z,69.50
2022-08-07T18:45:42.893Z,70.80
2022-08-07T18:50:04.598Z,71.20
2022-08-07T18:52:35.608Z,70.70
2022-08-07T18:54:54.368Z,71.50
2022-08-07T18:57:59.686Z,72.50
2022-08-07T19:00:53.671Z,72.50
2022-08-07T19:03:40.347Z,72.50
2022-08-07T19:06:33.897Z,72.40
2022-08-07T19:09:57.292Z,71.50
2022-08-07T19:12:20.029Z,73.30
2022-08-07T19:14:56.286Z,74.30
2022-08-07T19:18:02.755Z,75.10
2022-08-07T19:21:08.960Z,74.20
2022-08-07T19:23:59.453Z,75.70
2022-08-07T19:26:55.488Z,76.10
2022-08-07T19:30:57.804Z,76.60
2022-08-07T19:32:29.153Z,76.90
2022-08-07T19:35:03.265Z,78.70
2022-08-07T19:37:56.731Z,78.80
2022-08-07T19:40:31.571Z,78.30
2022-08-07T19:43:21.819Z,78.30
2022-08-07T19:46:09.603Z,79.50
2022-08-07T19:48:53.560Z,80.10
2022-08-07T19:51:52.812Z,80.00
2022-08-07T19:54:29.499Z,81.30
2022-08-07T19:58:00.654Z,80.70
2022-08-07T20:00:01.887Z,80.80
2022-08-07T20:02:38.948Z,81.90
2022-08-07T20:05:10.495Z,82.60
2022-08-07T20:07:46.606Z,82.90
2022-08-07T20:10:36.797Z,83.30
2022-08-07T20:13:22.661Z,82.80
2022-08-07T20:15:57.931Z,83.00
2022-08-07T20:18:32.709Z,83.60
2022-08-07T20:21:21.005Z,84.30
2022-08-07T20:24:00.412Z,83.80
2022-08-07T20:26:44.966Z,83.10
2022-08-07T20:29:49.050Z,83.80
2022-08-07T20:32:06.835Z,84.00
2022-08-07T20:34:50.884Z,84.70
2022-08-07T20:37:29.746Z,84.00
2022-08-07T20:40:33.422Z,82.80
2022-08-07T20:42:57.336Z,83.60
2022-08-07T20:45:33.771Z,82.50
2022-08-07T20:48:25.852Z,83.30
2022-08-07T20:51:00.763Z,84.10
2022-08-07T20:54:04.580Z,83.60
2022-08-07T20:56:28.042Z,84.10
2022-08-07T20:59:03.259Z,83.70
2022-08-07T21:01:45.235Z,84.20
2022-08-07T21:04:22.799Z,83.90
2022-08-07T21:06:56.858Z,83.50
2022-08-07T21:09:35.434Z,84.60
2022-08-07T21:12:28.895Z,85.30
2022-08-07T21:15:02.452Z,85.70
2022-08-07T21:18:20.350Z,85.10
2022-08-07T21:20:30.160Z,85.90
2022-08-07T21:23:08.938Z,86.00
2022-08-07T21:26:08.175Z,86.20
2022-08-07T21:29:23.507Z,86.70
2022-08-07T21:32:46.732Z,86.70
2022-08-07T21:35:34.898Z,86.80
2022-08-07T21:38:49.810Z,87.00
2022-08-07T21:41:37.676Z,87.00
2022-08-07T21:44:53.845Z,87.00
2022-08-07T21:47:39.968Z,87.50
2022-08-07T21:50:51.320Z,85.10
2022-08-07T21:53:32.893Z,86.20
2022-08-07T21:56:48.011Z,86.30
2022-08-07T22:00:05.540Z,84.00
2022-08-07T22:03:18.751Z,85.10
2022-08-07T22:06:30.623Z,84.10
2022-08-07T22:09:12.799Z,85.10
2022-08-07T22:12:05.510Z,84.30
2022-08-07T22:14:59.082Z,83.00
2022-08-07T22:17:45.077Z,83.10
2022-08-07T22:20:24.940Z,82.80
2022-08-07T22:23:04.077Z,83.60
2022-08-07T22:25:56.171Z,82.20
2022-08-07T22:28:36.712Z,83.50
2022-08-07T22:31:10.315Z,83.40
2022-08-07T22:33:56.367Z,83.50
2022-08-07T22:36:47.283Z,83.10
2022-08-07T22:40:05.219Z,81.90
2022-08-07T22:42:34.430Z,80.60
2022-08-07T22:45:11.088Z,81.40
2022-08-07T22:48:02.300Z,81.20
2022-08-07T22:50:57.773Z,83.50
2022-08-07T22:54:06.872Z,83.40
2022-08-07T22:57:05.736Z,82.60
2022-08-07T23:00:03.175Z,83.00
2022-08-07T23:02:54.217Z,83.50
2022-08-07T23:06:09.036Z,83.90
2022-08-07T23:08:53.021Z,83.40
2022-08-07T23:11:44.217Z,82.10
2022-08-07T23:15:06.607Z,82.20
2022-08-07T23:17:36.175Z,82.40
2022-08-07T23:20:53.413Z,83.20
2022-08-07T23:24:05.318Z,82.80
2022-08-07T23:27:02.091Z,82.10
2022-08-07T23:30:37.497Z,83.30
2022-08-07T23:34:18.640Z,83.90
2022-08-07T23:36:28.786Z,83.20
2022-08-07T23:39:22.042Z,83.50
2022-08-07T23:42:35.777Z,83.50
2022-08-07T23:46:01.332Z,82.20
2022-08-07T23:48:25.128Z,80.60
2022-08-07T23:51:01.771Z,82.10
2022-08-07T23:53:59.184Z,82.20
2022-08-07T23:56:41.582Z,82.30
